sensor_id;sensor_type;location;lat;lon;timestamp;P1;durP1;ratioP1;P2;durP2;ratioP2
49962;SDS011;36180;57.678;11.910;2023-06-10T00:01:52;2.20;;;1.10;;
49962;SDS011;36180;57.678;11.910;2023-06-10T00:04:20;1.33;;;0.90;;
49962;SDS011;36180;57.678;11.910;2023-06-10T00:06:49;1.35;;;1.10;;
49962;SDS011;36180;57.678;11.910;2023-06-10T00:09:16;0.93;;;0.93;;
49962;SDS011;36180;57.678;11.910;2023-06-10T00:11:43;1.13;;;0.93;;
49962;SDS011;36180;57.678;11.910;2023-06-10T00:14:10;4.22;;;1.02;;
49962;SDS011;36180;57.678;11.910;2023-06-10T00:16:37;1.40;;;1.00;;
49962;SDS011;36180;57.678;11.910;2023-06-10T00:19:05;2.05;;;1.10;;
49962;SDS011;36180;57.678;11.910;2023-06-10T00:21:33;1.73;;;1.00;;
49962;SDS011;36180;57.678;11.910;2023-06-10T00:24:04;1.70;;;1.08;;
49962;SDS011;36180;57.678;11.910;2023-06-10T00:26:32;1.30;;;0.98;;
49962;SDS011;36180;57.678;11.910;2023-06-10T00:28:59;1.60;;;1.08;;
49962;SDS011;36180;57.678;11.910;2023-06-10T00:31:26;1.70;;;1.00;;
49962;SDS011;36180;57.678;11.910;2023-06-10T00:33:54;1.88;;;1.00;;
49962;SDS011;36180;57.678;11.910;2023-06-10T00:36:21;3.28;;;1.02;;
49962;SDS011;36180;57.678;11.910;2023-06-10T00:38:48;2.28;;;1.23;;
49962;SDS011;36180;57.678;11.910;2023-06-10T00:41:16;1.95;;;1.00;;
49962;SDS011;36180;57.678;11.910;2023-06-10T00:43:43;0.70;;;0.70;;
49962;SDS011;36180;57.678;11.910;2023-06-10T00:46:11;3.83;;;0.93;;
49962;SDS011;36180;57.678;11.910;2023-06-10T00:48:38;3.08;;;0.90;;
49962;SDS011;36180;57.678;11.910;2023-06-10T00:51:06;1.13;;;1.02;;
49962;SDS011;36180;57.678;11.910;2023-06-10T00:53:34;1.40;;;0.93;;
49962;SDS011;36180;57.678;11.910;2023-06-10T00:56:02;1.70;;;0.90;;
49962;SDS011;36180;57.678;11.910;2023-06-10T00:58:31;1.60;;;0.95;;
49962;SDS011;36180;57.678;11.910;2023-06-10T01:00:58;2.38;;;0.98;;
49962;SDS011;36180;57.678;11.910;2023-06-10T01:03:26;2.45;;;1.00;;
49962;SDS011;36180;57.678;11.910;2023-06-10T01:05:55;2.17;;;0.95;;
49962;SDS011;36180;57.678;11.910;2023-06-10T01:08:32;3.00;;;0.90;;
49962;SDS011;36180;57.678;11.910;2023-06-10T01:11:03;2.38;;;0.98;;
49962;SDS011;36180;57.678;11.910;2023-06-10T01:13:33;2.17;;;1.23;;
49962;SDS011;36180;57.678;11.910;2023-06-10T01:16:02;1.92;;;0.98;;
49962;SDS011;36180;57.678;11.910;2023-06-10T01:18:30;2.97;;;1.00;;
49962;SDS011;36180;57.678;11.910;2023-06-10T01:20:57;1.13;;;0.90;;
49962;SDS011;36180;57.678;11.910;2023-06-10T01:23:26;1.13;;;0.85;;
49962;SDS011;36180;57.678;11.910;2023-06-10T01:25:55;1.38;;;0.90;;
49962;SDS011;36180;57.678;11.910;2023-06-10T01:30:55;1.60;;;0.60;;
49962;SDS011;36180;57.678;11.910;2023-06-10T01:33:28;2.28;;;0.85;;
49962;SDS011;36180;57.678;11.910;2023-06-10T01:35:58;2.05;;;0.95;;
49962;SDS011;36180;57.678;11.910;2023-06-10T01:38:27;1.42;;;1.13;;
49962;SDS011;36180;57.678;11.910;2023-06-10T01:40:54;2.13;;;0.98;;
49962;SDS011;36180;57.678;11.910;2023-06-10T01:43:23;1.50;;;0.90;;
49962;SDS011;36180;57.678;11.910;2023-06-10T01:45:50;1.00;;;0.90;;
49962;SDS011;36180;57.678;11.910;2023-06-10T01:48:17;1.58;;;0.80;;
49962;SDS011;36180;57.678;11.910;2023-06-10T01:50:44;1.38;;;0.75;;
49962;SDS011;36180;57.678;11.910;2023-06-10T01:53:11;1.38;;;0.80;;
49962;SDS011;36180;57.678;11.910;2023-06-10T01:55:40;1.02;;;0.70;;
49962;SDS011;36180;57.678;11.910;2023-06-10T01:58:07;0.65;;;0.65;;
49962;SDS011;36180;57.678;11.910;2023-06-10T02:00:34;0.77;;;0.60;;
49962;SDS011;36180;57.678;11.910;2023-06-10T02:03:03;1.98;;;0.70;;
49962;SDS011;36180;57.678;11.910;2023-06-10T02:05:31;0.82;;;0.80;;
49962;SDS011;36180;57.678;11.910;2023-06-10T02:07:58;1.13;;;0.93;;
49962;SDS011;36180;57.678;11.910;2023-06-10T02:10:25;0.98;;;0.80;;
49962;SDS011;36180;57.678;11.910;2023-06-10T02:12:54;1.05;;;0.80;;
49962;SDS011;36180;57.678;11.910;2023-06-10T02:15:21;0.80;;;0.75;;
49962;SDS011;36180;57.678;11.910;2023-06-10T02:17:48;1.30;;;0.80;;
49962;SDS011;36180;57.678;11.910;2023-06-10T02:20:15;0.73;;;0.70;;
49962;SDS011;36180;57.678;11.910;2023-06-10T02:22:46;0.88;;;0.80;;
49962;SDS011;36180;57.678;11.910;2023-06-10T02:25:13;1.67;;;0.70;;
49962;SDS011;36180;57.678;11.910;2023-06-10T02:27:40;1.13;;;0.93;;
49962;SDS011;36180;57.678;11.910;2023-06-10T02:30:09;1.27;;;0.80;;
49962;SDS011;36180;57.678;11.910;2023-06-10T02:32:38;0.80;;;0.70;;
49962;SDS011;36180;57.678;11.910;2023-06-10T02:35:06;0.90;;;0.60;;
49962;SDS011;36180;57.678;11.910;2023-06-10T02:37:38;1.02;;;0.70;;
49962;SDS011;36180;57.678;11.910;2023-06-10T02:40:06;2.58;;;0.60;;
49962;SDS011;36180;57.678;11.910;2023-06-10T02:42:36;1.00;;;0.80;;
49962;SDS011;36180;57.678;11.910;2023-06-10T02:45:04;3.08;;;0.60;;
49962;SDS011;36180;57.678;11.910;2023-06-10T02:47:39;2.80;;;0.80;;
49962;SDS011;36180;57.678;11.910;2023-06-10T02:50:07;1.15;;;0.75;;
49962;SDS011;36180;57.678;11.910;2023-06-10T02:52:41;1.65;;;0.80;;
49962;SDS011;36180;57.678;11.910;2023-06-10T02:55:09;0.90;;;0.70;;
49962;SDS011;36180;57.678;11.910;2023-06-10T02:57:38;0.77;;;0.70;;
49962;SDS011;36180;57.678;11.910;2023-06-10T03:00:07;0.73;;;0.55;;
49962;SDS011;36180;57.678;11.910;2023-06-10T03:02:39;0.75;;;0.50;;
49962;SDS011;36180;57.678;11.910;2023-06-10T03:05:09;1.00;;;0.60;;
49962;SDS011;36180;57.678;11.910;2023-06-10T03:07:41;1.27;;;0.70;;
49962;SDS011;36180;57.678;11.910;2023-06-10T03:10:08;1.85;;;0.70;;
49962;SDS011;36180;57.678;11.910;2023-06-10T03:12:38;0.40;;;0.40;;
49962;SDS011;36180;57.678;11.910;2023-06-10T03:15:06;0.68;;;0.68;;
49962;SDS011;36180;57.678;11.910;2023-06-10T03:17:34;0.70;;;0.57;;
49962;SDS011;36180;57.678;11.910;2023-06-10T03:20:03;1.40;;;0.70;;
49962;SDS011;36180;57.678;11.910;2023-06-10T03:22:34;1.23;;;0.70;;
49962;SDS011;36180;57.678;11.910;2023-06-10T03:27:39;2.87;;;0.50;;
49962;SDS011;36180;57.678;11.910;2023-06-10T03:30:07;0.80;;;0.68;;
49962;SDS011;36180;57.678;11.910;2023-06-10T03:32:37;1.27;;;0.68;;
49962;SDS011;36180;57.678;11.910;2023-06-10T03:35:10;1.08;;;0.70;;
49962;SDS011;36180;57.678;11.910;2023-06-10T03:37:38;1.27;;;0.80;;
49962;SDS011;36180;57.678;11.910;2023-06-10T03:40:05;1.38;;;0.55;;
49962;SDS011;36180;57.678;11.910;2023-06-10T03:42:36;2.65;;;0.63;;
49962;SDS011;36180;57.678;11.910;2023-06-10T03:45:05;0.90;;;0.60;;
49962;SDS011;36180;57.678;11.910;2023-06-10T03:47:34;1.15;;;0.90;;
49962;SDS011;36180;57.678;11.910;2023-06-10T03:50:04;0.90;;;0.73;;
49962;SDS011;36180;57.678;11.910;2023-06-10T03:52:34;2.55;;;0.60;;
49962;SDS011;36180;57.678;11.910;2023-06-10T03:55:01;0.77;;;0.77;;
49962;SDS011;36180;57.678;11.910;2023-06-10T03:57:29;0.50;;;0.50;;
49962;SDS011;36180;57.678;11.910;2023-06-10T03:59:57;0.90;;;0.60;;
49962;SDS011;36180;57.678;11.910;2023-06-10T04:02:24;0.57;;;0.57;;
49962;SDS011;36180;57.678;11.910;2023-06-10T04:04:52;1.80;;;0.70;;
49962;SDS011;36180;57.678;11.910;2023-06-10T04:07:19;0.57;;;0.55;;
49962;SDS011;36180;57.678;11.910;2023-06-10T04:09:48;0.77;;;0.70;;
49962;SDS011;36180;57.678;11.910;2023-06-10T04:12:16;1.75;;;0.47;;
49962;SDS011;36180;57.678;11.910;2023-06-10T04:14:43;0.70;;;0.60;;
49962;SDS011;36180;57.678;11.910;2023-06-10T04:17:11;0.70;;;0.47;;
49962;SDS011;36180;57.678;11.910;2023-06-10T04:19:38;1.38;;;0.60;;
49962;SDS011;36180;57.678;11.910;2023-06-10T04:22:06;0.60;;;0.60;;
49962;SDS011;36180;57.678;11.910;2023-06-10T04:24:33;0.50;;;0.50;;
49962;SDS011;36180;57.678;11.910;2023-06-10T04:27:02;0.68;;;0.50;;
49962;SDS011;36180;57.678;11.910;2023-06-10T04:29:30;0.63;;;0.50;;
49962;SDS011;36180;57.678;11.910;2023-06-10T04:31:57;0.60;;;0.43;;
49962;SDS011;36180;57.678;11.910;2023-06-10T04:34:26;0.82;;;0.55;;
49962;SDS011;36180;57.678;11.910;2023-06-10T04:36:53;1.15;;;0.60;;
49962;SDS011;36180;57.678;11.910;2023-06-10T04:39:21;0.47;;;0.40;;
49962;SDS011;36180;57.678;11.910;2023-06-10T04:41:49;0.75;;;0.60;;
49962;SDS011;36180;57.678;11.910;2023-06-10T04:44:18;0.60;;;0.47;;
49962;SDS011;36180;57.678;11.910;2023-06-10T04:46:46;0.30;;;0.30;;
49962;SDS011;36180;57.678;11.910;2023-06-10T04:49:14;1.10;;;0.52;;
49962;SDS011;36180;57.678;11.910;2023-06-10T04:51:41;1.95;;;0.70;;
49962;SDS011;36180;57.678;11.910;2023-06-10T04:54:08;0.90;;;0.35;;
49962;SDS011;36180;57.678;11.910;2023-06-10T04:56:35;1.45;;;0.60;;
49962;SDS011;36180;57.678;11.910;2023-06-10T04:59:02;1.23;;;0.45;;
49962;SDS011;36180;57.678;11.910;2023-06-10T05:01:31;2.25;;;0.50;;
49962;SDS011;36180;57.678;11.910;2023-06-10T05:03:58;2.58;;;0.40;;
49962;SDS011;36180;57.678;11.910;2023-06-10T05:06:25;1.75;;;0.50;;
49962;SDS011;36180;57.678;11.910;2023-06-10T05:08:52;0.35;;;0.35;;
49962;SDS011;36180;57.678;11.910;2023-06-10T05:11:19;1.17;;;0.40;;
49962;SDS011;36180;57.678;11.910;2023-06-10T05:13:47;1.75;;;0.50;;
49962;SDS011;36180;57.678;11.910;2023-06-10T05:16:14;0.30;;;0.30;;
49962;SDS011;36180;57.678;11.910;2023-06-10T05:18:42;1.27;;;0.55;;
49962;SDS011;36180;57.678;11.910;2023-06-10T05:21:10;0.75;;;0.50;;
49962;SDS011;36180;57.678;11.910;2023-06-10T05:23:37;1.55;;;0.40;;
49962;SDS011;36180;57.678;11.910;2023-06-10T05:26:04;0.65;;;0.40;;
49962;SDS011;36180;57.678;11.910;2023-06-10T05:28:31;0.68;;;0.50;;
49962;SDS011;36180;57.678;11.910;2023-06-10T05:30:58;0.85;;;0.47;;
49962;SDS011;36180;57.678;11.910;2023-06-10T05:33:25;0.40;;;0.40;;
49962;SDS011;36180;57.678;11.910;2023-06-10T05:35:54;2.80;;;0.50;;
49962;SDS011;36180;57.678;11.910;2023-06-10T05:38:21;0.40;;;0.40;;
49962;SDS011;36180;57.678;11.910;2023-06-10T05:40:48;0.93;;;0.50;;
49962;SDS011;36180;57.678;11.910;2023-06-10T05:43:15;0.52;;;0.50;;
49962;SDS011;36180;57.678;11.910;2023-06-10T05:45:42;0.55;;;0.40;;
49962;SDS011;36180;57.678;11.910;2023-06-10T05:48:09;0.50;;;0.45;;
49962;SDS011;36180;57.678;11.910;2023-06-10T05:50:36;0.80;;;0.50;;
49962;SDS011;36180;57.678;11.910;2023-06-10T05:53:06;0.45;;;0.40;;
49962;SDS011;36180;57.678;11.910;2023-06-10T05:55:40;3.22;;;0.60;;
49962;SDS011;36180;57.678;11.910;2023-06-10T05:58:07;1.80;;;0.40;;
49962;SDS011;36180;57.678;11.910;2023-06-10T06:00:34;1.73;;;0.55;;
49962;SDS011;36180;57.678;11.910;2023-06-10T06:03:01;0.85;;;0.50;;
49962;SDS011;36180;57.678;11.910;2023-06-10T06:05:28;0.45;;;0.40;;
49962;SDS011;36180;57.678;11.910;2023-06-10T06:08:00;0.98;;;0.50;;
49962;SDS011;36180;57.678;11.910;2023-06-10T06:10:28;0.65;;;0.43;;
49962;SDS011;36180;57.678;11.910;2023-06-10T06:12:56;0.85;;;0.70;;
49962;SDS011;36180;57.678;11.910;2023-06-10T06:15:23;0.82;;;0.60;;
49962;SDS011;36180;57.678;11.910;2023-06-10T06:17:50;0.57;;;0.50;;
49962;SDS011;36180;57.678;11.910;2023-06-10T06:20:17;1.02;;;0.50;;
49962;SDS011;36180;57.678;11.910;2023-06-10T06:22:44;0.60;;;0.40;;
49962;SDS011;36180;57.678;11.910;2023-06-10T06:25:12;0.95;;;0.50;;
49962;SDS011;36180;57.678;11.910;2023-06-10T06:27:40;0.50;;;0.40;;
49962;SDS011;36180;57.678;11.910;2023-06-10T06:30:08;1.48;;;0.50;;
49962;SDS011;36180;57.678;11.910;2023-06-10T06:32:35;1.25;;;0.50;;
49962;SDS011;36180;57.678;11.910;2023-06-10T06:35:03;0.55;;;0.40;;
49962;SDS011;36180;57.678;11.910;2023-06-10T06:37:33;0.47;;;0.40;;
49962;SDS011;36180;57.678;11.910;2023-06-10T06:40:13;0.52;;;0.40;;
49962;SDS011;36180;57.678;11.910;2023-06-10T06:42:42;0.70;;;0.40;;
49962;SDS011;36180;57.678;11.910;2023-06-10T06:45:29;0.70;;;0.38;;
49962;SDS011;36180;57.678;11.910;2023-06-10T06:47:59;0.80;;;0.50;;
49962;SDS011;36180;57.678;11.910;2023-06-10T06:50:26;0.57;;;0.40;;
49962;SDS011;36180;57.678;11.910;2023-06-10T06:52:53;0.40;;;0.32;;
49962;SDS011;36180;57.678;11.910;2023-06-10T06:55:20;2.85;;;0.50;;
49962;SDS011;36180;57.678;11.910;2023-06-10T06:57:48;0.40;;;0.40;;
49962;SDS011;36180;57.678;11.910;2023-06-10T07:00:16;3.08;;;0.77;;
49962;SDS011;36180;57.678;11.910;2023-06-10T07:02:43;1.02;;;0.45;;
49962;SDS011;36180;57.678;11.910;2023-06-10T07:05:10;0.50;;;0.50;;
49962;SDS011;36180;57.678;11.910;2023-06-10T07:07:37;0.95;;;0.43;;
49962;SDS011;36180;57.678;11.910;2023-06-10T07:10:05;0.70;;;0.50;;
49962;SDS011;36180;57.678;11.910;2023-06-10T07:12:33;0.70;;;0.60;;
49962;SDS011;36180;57.678;11.910;2023-06-10T07:15:01;0.70;;;0.40;;
49962;SDS011;36180;57.678;11.910;2023-06-10T07:17:29;0.68;;;0.50;;
49962;SDS011;36180;57.678;11.910;2023-06-10T07:19:56;0.35;;;0.30;;
49962;SDS011;36180;57.678;11.910;2023-06-10T07:22:24;2.35;;;0.50;;
49962;SDS011;36180;57.678;11.910;2023-06-10T07:24:51;1.90;;;0.60;;
49962;SDS011;36180;57.678;11.910;2023-06-10T07:27:20;1.60;;;0.60;;
49962;SDS011;36180;57.678;11.910;2023-06-10T07:29:47;0.68;;;0.60;;
49962;SDS011;36180;57.678;11.910;2023-06-10T07:32:15;3.00;;;0.70;;
49962;SDS011;36180;57.678;11.910;2023-06-10T07:34:42;0.82;;;0.50;;
49962;SDS011;36180;57.678;11.910;2023-06-10T07:37:10;0.85;;;0.70;;
49962;SDS011;36180;57.678;11.910;2023-06-10T07:39:37;0.68;;;0.60;;
49962;SDS011;36180;57.678;11.910;2023-06-10T07:42:04;2.92;;;0.50;;
49962;SDS011;36180;57.678;11.910;2023-06-10T07:44:32;1.92;;;0.70;;
49962;SDS011;36180;57.678;11.910;2023-06-10T07:46:59;0.75;;;0.60;;
49962;SDS011;36180;57.678;11.910;2023-06-10T07:49:27;1.50;;;0.60;;
49962;SDS011;36180;57.678;11.910;2023-06-10T07:51:55;1.35;;;0.68;;
49962;SDS011;36180;57.678;11.910;2023-06-10T07:54:23;3.25;;;0.57;;
49962;SDS011;36180;57.678;11.910;2023-06-10T07:56:50;1.35;;;0.50;;
49962;SDS011;36180;57.678;11.910;2023-06-10T07:59:18;3.00;;;0.70;;
49962;SDS011;36180;57.678;11.910;2023-06-10T08:01:45;1.05;;;0.73;;
49962;SDS011;36180;57.678;11.910;2023-06-10T08:04:12;2.15;;;0.85;;
49962;SDS011;36180;57.678;11.910;2023-06-10T08:06:41;5.55;;;1.08;;
49962;SDS011;36180;57.678;11.910;2023-06-10T08:09:08;2.15;;;0.70;;
49962;SDS011;36180;57.678;11.910;2023-06-10T08:11:35;1.42;;;0.60;;
49962;SDS011;36180;57.678;11.910;2023-06-10T08:14:02;1.92;;;1.00;;
49962;SDS011;36180;57.678;11.910;2023-06-10T08:16:29;3.45;;;0.77;;
49962;SDS011;36180;57.678;11.910;2023-06-10T08:18:56;0.85;;;0.70;;
49962;SDS011;36180;57.678;11.910;2023-06-10T08:21:23;1.40;;;0.70;;
49962;SDS011;36180;57.678;11.910;2023-06-10T08:23:53;1.02;;;0.75;;
49962;SDS011;36180;57.678;11.910;2023-06-10T08:26:20;1.60;;;0.90;;
49962;SDS011;36180;57.678;11.910;2023-06-10T08:28:47;3.05;;;0.90;;
49962;SDS011;36180;57.678;11.910;2023-06-10T08:31:14;3.10;;;0.88;;
49962;SDS011;36180;57.678;11.910;2023-06-10T08:33:42;2.22;;;0.75;;
49962;SDS011;36180;57.678;11.910;2023-06-10T08:36:09;4.78;;;0.90;;
49962;SDS011;36180;57.678;11.910;2023-06-10T08:38:36;2.95;;;0.95;;
49962;SDS011;36180;57.678;11.910;2023-06-10T08:41:06;1.38;;;0.95;;
49962;SDS011;36180;57.678;11.910;2023-06-10T08:43:34;1.55;;;0.75;;
49962;SDS011;36180;57.678;11.910;2023-06-10T08:46:06;1.27;;;0.85;;
49962;SDS011;36180;57.678;11.910;2023-06-10T08:48:35;2.72;;;0.80;;
49962;SDS011;36180;57.678;11.910;2023-06-10T08:51:09;2.53;;;0.90;;
49962;SDS011;36180;57.678;11.910;2023-06-10T08:53:37;1.38;;;0.80;;
49962;SDS011;36180;57.678;11.910;2023-06-10T08:56:11;1.13;;;1.00;;
49962;SDS011;36180;57.678;11.910;2023-06-10T08:58:38;1.40;;;0.73;;
49962;SDS011;36180;57.678;11.910;2023-06-10T09:01:07;1.30;;;0.70;;
49962;SDS011;36180;57.678;11.910;2023-06-10T09:03:35;3.75;;;1.15;;
49962;SDS011;36180;57.678;11.910;2023-06-10T09:06:04;1.25;;;0.90;;
49962;SDS011;36180;57.678;11.910;2023-06-10T09:08:32;2.45;;;0.88;;
49962;SDS011;36180;57.678;11.910;2023-06-10T09:11:00;2.78;;;1.00;;
49962;SDS011;36180;57.678;11.910;2023-06-10T09:13:29;2.20;;;0.80;;
49962;SDS011;36180;57.678;11.910;2023-06-10T09:15:56;1.60;;;0.90;;
49962;SDS011;36180;57.678;11.910;2023-06-10T09:18:26;1.85;;;0.88;;
49962;SDS011;36180;57.678;11.910;2023-06-10T09:20:53;1.80;;;0.82;;
49962;SDS011;36180;57.678;11.910;2023-06-10T09:23:21;2.60;;;1.10;;
49962;SDS011;36180;57.678;11.910;2023-06-10T09:25:55;1.50;;;1.00;;
49962;SDS011;36180;57.678;11.910;2023-06-10T09:28:23;1.55;;;0.98;;
49962;SDS011;36180;57.678;11.910;2023-06-10T09:30:53;2.38;;;1.00;;
49962;SDS011;36180;57.678;11.910;2023-06-10T09:33:28;1.30;;;1.00;;
49962;SDS011;36180;57.678;11.910;2023-06-10T09:35:55;1.33;;;1.00;;
49962;SDS011;36180;57.678;11.910;2023-06-10T09:38:29;2.83;;;1.20;;
49962;SDS011;36180;57.678;11.910;2023-06-10T09:40:57;1.00;;;0.90;;
49962;SDS011;36180;57.678;11.910;2023-06-10T09:43:38;1.00;;;0.90;;
49962;SDS011;36180;57.678;11.910;2023-06-10T09:46:07;1.33;;;1.23;;
49962;SDS011;36180;57.678;11.910;2023-06-10T09:48:41;2.80;;;1.15;;
49962;SDS011;36180;57.678;11.910;2023-06-10T09:51:10;2.17;;;1.10;;
49962;SDS011;36180;57.678;11.910;2023-06-10T09:53:38;2.83;;;1.02;;
49962;SDS011;36180;57.678;11.910;2023-06-10T09:56:05;1.08;;;0.85;;
49962;SDS011;36180;57.678;11.910;2023-06-10T09:58:36;1.40;;;1.15;;
49962;SDS011;36180;57.678;11.910;2023-06-10T10:01:04;1.50;;;1.00;;
49962;SDS011;36180;57.678;11.910;2023-06-10T10:03:33;1.10;;;1.00;;
49962;SDS011;36180;57.678;11.910;2023-06-10T10:06:00;1.23;;;0.80;;
49962;SDS011;36180;57.678;11.910;2023-06-10T10:08:27;1.73;;;1.10;;
49962;SDS011;36180;57.678;11.910;2023-06-10T10:10:56;1.80;;;1.17;;
49962;SDS011;36180;57.678;11.910;2023-06-10T10:13:23;2.15;;;1.30;;
49962;SDS011;36180;57.678;11.910;2023-06-10T10:15:52;1.15;;;1.00;;
49962;SDS011;36180;57.678;11.910;2023-06-10T10:18:19;1.63;;;1.10;;
49962;SDS011;36180;57.678;11.910;2023-06-10T10:20:51;2.88;;;1.00;;
49962;SDS011;36180;57.678;11.910;2023-06-10T10:23:21;1.10;;;0.93;;
49962;SDS011;36180;57.678;11.910;2023-06-10T10:25:53;1.45;;;1.10;;
49962;SDS011;36180;57.678;11.910;2023-06-10T10:28:21;1.10;;;0.88;;
49962;SDS011;36180;57.678;11.910;2023-06-10T10:30:53;4.25;;;1.17;;
49962;SDS011;36180;57.678;11.910;2023-06-10T10:33:22;0.88;;;0.88;;
49962;SDS011;36180;57.678;11.910;2023-06-10T10:36:01;2.58;;;0.90;;
49962;SDS011;36180;57.678;11.910;2023-06-10T10:38:30;1.50;;;1.15;;
49962;SDS011;36180;57.678;11.910;2023-06-10T10:40:58;2.05;;;1.00;;
49962;SDS011;36180;57.678;11.910;2023-06-10T10:43:26;1.65;;;1.05;;
49962;SDS011;36180;57.678;11.910;2023-06-10T10:45:59;1.73;;;1.02;;
49962;SDS011;36180;57.678;11.910;2023-06-10T10:48:26;4.47;;;1.23;;
49962;SDS011;36180;57.678;11.910;2023-06-10T10:50:58;2.20;;;1.40;;
49962;SDS011;36180;57.678;11.910;2023-06-10T10:53:27;2.28;;;1.10;;
49962;SDS011;36180;57.678;11.910;2023-06-10T10:55:58;1.23;;;0.93;;
49962;SDS011;36180;57.678;11.910;2023-06-10T10:58:25;2.15;;;1.42;;
49962;SDS011;36180;57.678;11.910;2023-06-10T11:00:52;1.13;;;0.95;;
49962;SDS011;36180;57.678;11.910;2023-06-10T11:03:19;3.25;;;1.17;;
49962;SDS011;36180;57.678;11.910;2023-06-10T11:05:47;1.80;;;0.80;;
49962;SDS011;36180;57.678;11.910;2023-06-10T11:08:45;3.17;;;1.00;;
49962;SDS011;36180;57.678;11.910;2023-06-10T11:11:20;1.23;;;1.13;;
49962;SDS011;36180;57.678;11.910;2023-06-10T11:14:06;5.47;;;1.33;;
49962;SDS011;36180;57.678;11.910;2023-06-10T11:16:38;1.63;;;1.17;;
49962;SDS011;36180;57.678;11.910;2023-06-10T11:21:37;1.63;;;1.00;;
49962;SDS011;36180;57.678;11.910;2023-06-10T11:24:25;1.52;;;1.30;;
49962;SDS011;36180;57.678;11.910;2023-06-10T11:26:53;3.03;;;1.38;;
49962;SDS011;36180;57.678;11.910;2023-06-10T11:29:20;2.25;;;1.23;;
49962;SDS011;36180;57.678;11.910;2023-06-10T11:31:49;1.33;;;1.00;;
49962;SDS011;36180;57.678;11.910;2023-06-10T11:34:23;2.70;;;0.93;;
49962;SDS011;36180;57.678;11.910;2023-06-10T11:36:52;2.17;;;1.10;;
49962;SDS011;36180;57.678;11.910;2023-06-10T11:39:20;4.10;;;1.00;;
49962;SDS011;36180;57.678;11.910;2023-06-10T11:41:50;1.13;;;1.00;;
49962;SDS011;36180;57.678;11.910;2023-06-10T11:44:18;1.30;;;1.17;;
49962;SDS011;36180;57.678;11.910;2023-06-10T11:46:45;2.30;;;1.25;;
49962;SDS011;36180;57.678;11.910;2023-06-10T11:49:13;2.00;;;1.10;;
49962;SDS011;36180;57.678;11.910;2023-06-10T11:51:43;1.90;;;1.25;;
49962;SDS011;36180;57.678;11.910;2023-06-10T11:54:14;1.58;;;1.10;;
49962;SDS011;36180;57.678;11.910;2023-06-10T11:56:43;2.90;;;1.27;;
49962;SDS011;36180;57.678;11.910;2023-06-10T11:59:11;3.28;;;1.42;;
49962;SDS011;36180;57.678;11.910;2023-06-10T12:01:42;4.18;;;1.30;;
49962;SDS011;36180;57.678;11.910;2023-06-10T12:04:10;4.57;;;1.27;;
49962;SDS011;36180;57.678;11.910;2023-06-10T12:06:38;4.53;;;1.35;;
49962;SDS011;36180;57.678;11.910;2023-06-10T12:09:18;1.70;;;1.23;;
49962;SDS011;36180;57.678;11.910;2023-06-10T12:11:48;2.08;;;1.17;;
49962;SDS011;36180;57.678;11.910;2023-06-10T12:14:17;3.45;;;1.20;;
49962;SDS011;36180;57.678;11.910;2023-06-10T12:17:19;1.60;;;1.20;;
49962;SDS011;36180;57.678;11.910;2023-06-10T12:19:47;1.63;;;1.35;;
49962;SDS011;36180;57.678;11.910;2023-06-10T12:22:14;1.52;;;1.23;;
49962;SDS011;36180;57.678;11.910;2023-06-10T12:24:45;2.60;;;1.00;;
49962;SDS011;36180;57.678;11.910;2023-06-10T12:27:12;2.97;;;1.05;;
49962;SDS011;36180;57.678;11.910;2023-06-10T12:29:41;1.77;;;0.93;;
49962;SDS011;36180;57.678;11.910;2023-06-10T12:32:18;1.95;;;1.40;;
49962;SDS011;36180;57.678;11.910;2023-06-10T12:34:48;1.10;;;1.00;;
49962;SDS011;36180;57.678;11.910;2023-06-10T12:37:15;1.25;;;1.00;;
49962;SDS011;36180;57.678;11.910;2023-06-10T12:39:43;2.63;;;1.17;;
49962;SDS011;36180;57.678;11.910;2023-06-10T12:42:21;3.08;;;1.30;;
49962;SDS011;36180;57.678;11.910;2023-06-10T12:44:52;2.35;;;1.27;;
49962;SDS011;36180;57.678;11.910;2023-06-10T12:47:20;1.55;;;1.10;;
49962;SDS011;36180;57.678;11.910;2023-06-10T12:49:56;2.33;;;1.10;;
49962;SDS011;36180;57.678;11.910;2023-06-10T12:52:24;2.13;;;0.90;;
49962;SDS011;36180;57.678;11.910;2023-06-10T12:54:51;1.95;;;1.38;;
49962;SDS011;36180;57.678;11.910;2023-06-10T12:57:19;1.60;;;1.17;;
49962;SDS011;36180;57.678;11.910;2023-06-10T12:59:46;3.22;;;1.40;;
49962;SDS011;36180;57.678;11.910;2023-06-10T13:02:18;2.30;;;1.10;;
49962;SDS011;36180;57.678;11.910;2023-06-10T13:04:46;1.52;;;1.25;;
49962;SDS011;36180;57.678;11.910;2023-06-10T13:07:13;1.83;;;1.27;;
49962;SDS011;36180;57.678;11.910;2023-06-10T13:09:40;3.33;;;1.25;;
49962;SDS011;36180;57.678;11.910;2023-06-10T13:12:07;2.00;;;1.40;;
49962;SDS011;36180;57.678;11.910;2023-06-10T13:14:35;3.17;;;1.45;;
49962;SDS011;36180;57.678;11.910;2023-06-10T13:17:03;1.27;;;0.93;;
49962;SDS011;36180;57.678;11.910;2023-06-10T13:19:32;1.40;;;1.20;;
49962;SDS011;36180;57.678;11.910;2023-06-10T13:21:59;2.50;;;1.05;;
49962;SDS011;36180;57.678;11.910;2023-06-10T13:24:26;1.83;;;1.30;;
49962;SDS011;36180;57.678;11.910;2023-06-10T13:26:53;3.08;;;1.20;;
49962;SDS011;36180;57.678;11.910;2023-06-10T13:29:21;2.30;;;1.20;;
49962;SDS011;36180;57.678;11.910;2023-06-10T13:31:48;5.85;;;1.35;;
49962;SDS011;36180;57.678;11.910;2023-06-10T13:34:15;1.65;;;1.20;;
49962;SDS011;36180;57.678;11.910;2023-06-10T13:36:44;1.52;;;1.23;;
49962;SDS011;36180;57.678;11.910;2023-06-10T13:39:11;1.90;;;1.20;;
49962;SDS011;36180;57.678;11.910;2023-06-10T13:41:39;4.63;;;1.55;;
49962;SDS011;36180;57.678;11.910;2023-06-10T13:44:07;1.10;;;1.00;;
49962;SDS011;36180;57.678;11.910;2023-06-10T13:46:34;3.05;;;1.20;;
49962;SDS011;36180;57.678;11.910;2023-06-10T13:49:01;1.73;;;1.20;;
49962;SDS011;36180;57.678;11.910;2023-06-10T13:51:28;2.05;;;1.35;;
49962;SDS011;36180;57.678;11.910;2023-06-10T13:53:57;2.20;;;1.10;;
49962;SDS011;36180;57.678;11.910;2023-06-10T13:56:24;2.53;;;1.30;;
49962;SDS011;36180;57.678;11.910;2023-06-10T13:58:51;2.67;;;1.27;;
49962;SDS011;36180;57.678;11.910;2023-06-10T14:01:18;2.00;;;1.30;;
49962;SDS011;36180;57.678;11.910;2023-06-10T14:03:45;1.50;;;1.17;;
49962;SDS011;36180;57.678;11.910;2023-06-10T14:06:12;2.55;;;1.38;;
49962;SDS011;36180;57.678;11.910;2023-06-10T14:08:43;1.98;;;1.33;;
49962;SDS011;36180;57.678;11.910;2023-06-10T14:11:12;2.03;;;1.27;;
49962;SDS011;36180;57.678;11.910;2023-06-10T14:13:39;5.50;;;1.30;;
49962;SDS011;36180;57.678;11.910;2023-06-10T14:16:06;4.53;;;1.20;;
49962;SDS011;36180;57.678;11.910;2023-06-10T14:18:33;1.85;;;1.00;;
49962;SDS011;36180;57.678;11.910;2023-06-10T14:21:00;1.30;;;1.00;;
49962;SDS011;36180;57.678;11.910;2023-06-10T14:23:27;2.47;;;1.33;;
49962;SDS011;36180;57.678;11.910;2023-06-10T14:25:54;2.47;;;1.20;;
49962;SDS011;36180;57.678;11.910;2023-06-10T14:28:23;1.48;;;1.15;;
49962;SDS011;36180;57.678;11.910;2023-06-10T14:30:51;1.25;;;1.10;;
49962;SDS011;36180;57.678;11.910;2023-06-10T14:33:18;1.10;;;1.00;;
49962;SDS011;36180;57.678;11.910;2023-06-10T14:35:45;1.63;;;1.02;;
49962;SDS011;36180;57.678;11.910;2023-06-10T14:38:12;2.72;;;1.10;;
49962;SDS011;36180;57.678;11.910;2023-06-10T14:40:39;1.70;;;1.08;;
49962;SDS011;36180;57.678;11.910;2023-06-10T14:43:06;5.00;;;1.20;;
49962;SDS011;36180;57.678;11.910;2023-06-10T14:45:36;1.13;;;1.02;;
49962;SDS011;36180;57.678;11.910;2023-06-10T14:48:04;1.10;;;1.00;;
49962;SDS011;36180;57.678;11.910;2023-06-10T14:50:32;1.98;;;1.02;;